Time;durP1;ratioP1;P1;durP2;ratioP2;P2;SDS_P1;SDS_P2;PMS_P1;PMS_P2;Temp;Humidity;BMP_temperature;BMP_pressure;BME280_temperature;BME280_humidity;BME280_pressure;Samples;Min_cycle;Max_cycle;Signal;HPM_P1;HPM_P2
2022/03/02 00:00:56;;;;;;;53.20;17.20;;;;;;;-4.67;88.61;100680.10;103496;1301;24256;-25
2022/03/02 00:03:22;;;;;;;49.30;17.40;;;;;;;-4.73;88.76;100685.80;103618;1302;24215;-29
2022/03/02 00:05:47;;;;;;;61.50;19.10;;;;;;;-4.84;87.96;100681.41;103563;1303;24277;-29
2022/03/02 00:08:13;;;;;;;46.90;13.70;;;;;;;-4.96;87.71;100680.14;103543;1302;24386;-26
2022/03/02 00:10:38;;;;;;;42.90;13.20;;;;;;;-4.93;89.99;100678.81;103505;1303;24301;-26
2022/03/02 00:13:04;;;;;;;41.50;14.40;;;;;;;-4.93;89.62;100678.64;103553;1302;24258;-30
2022/03/02 00:15:30;;;;;;;39.00;14.40;;;;;;;-4.83;90.44;100679.75;103572;1303;22724;-29
2022/03/02 00:17:56;;;;;;;51.20;14.60;;;;;;;-4.79;88.03;100682.39;103523;1303;24380;-29
2022/03/02 00:20:22;;;;;;;61.50;19.10;;;;;;;-4.88;84.01;100682.77;103542;1303;24316;-29
2022/03/02 00:22:52;;;;;;;52.80;16.70;;;;;;;-4.97;84.59;100678.97;103559;1302;24196;-26
2022/03/02 00:25:20;;;;;;;66.60;19.10;;;;;;;-4.97;87.96;100683.34;103547;1302;24215;-27
2022/03/02 00:27:46;;;;;;;61.20;19.20;;;;;;;-5.07;86.67;100680.30;103568;1303;24245;-30
2022/03/02 00:30:11;;;;;;;50.20;18.20;;;;;;;-5.14;87.24;100675.34;103547;1302;24355;-27
2022/03/02 00:32:38;;;;;;;66.10;19.20;;;;;;;-5.12;88.05;100670.37;103574;1302;24365;-25
2022/03/02 00:35:04;;;;;;;61.90;18.10;;;;;;;-5.09;88.58;100663.45;103531;1303;24255;-26
2022/03/02 00:37:30;;;;;;;62.90;20.30;;;;;;;-5.02;88.97;100662.11;103560;1301;22508;-28
2022/03/02 00:39:56;;;;;;;68.20;22.60;;;;;;;-5.00;88.01;100661.63;103502;1300;24377;-25
2022/03/02 00:42:22;;;;;;;90.00;24.90;;;;;;;-5.02;87.54;100656.14;103563;1303;24249;-24
2022/03/02 00:44:48;;;;;;;51.40;16.70;;;;;;;-5.11;86.31;100656.91;103579;1299;24297;-30
2022/03/02 00:47:14;;;;;;;48.90;13.80;;;;;;;-5.07;88.85;100657.26;103484;1302;24200;-29
2022/03/02 00:49:40;;;;;;;60.00;15.20;;;;;;;-4.96;89.43;100652.22;103648;1300;24209;-25
2022/03/02 00:52:09;;;;;;;47.70;15.80;;;;;;;-4.89;89.75;100652.80;103497;1302;24380;-28
2022/03/02 00:54:34;;;;;;;56.20;17.00;;;;;;;-4.86;90.20;100653.86;103613;1300;24349;-26
2022/03/02 00:57:01;;;;;;;51.70;16.00;;;;;;;-4.82;90.50;100650.55;103646;1299;24214;-29
2022/03/02 00:59:27;;;;;;;37.90;15.00;;;;;;;-4.80;89.54;100648.88;103654;1299;22628;-26
2022/03/02 01:01:53;;;;;;;45.20;16.20;;;;;;;-4.90;88.78;100643.58;103542;1302;24467;-28
2022/03/02 01:04:18;;;;;;;72.40;18.80;;;;;;;-4.96;89.47;100641.04;103558;1302;22859;-26
2022/03/02 01:06:44;;;;;;;64.50;19.30;;;;;;;-5.02;88.59;100638.69;103593;1300;24309;-29
2022/03/02 01:09:10;;;;;;;60.20;16.90;;;;;;;-5.19;87.82;100634.20;103551;1300;24285;-25
2022/03/02 01:11:36;;;;;;;43.70;16.90;;;;;;;-5.31;87.42;100632.94;103580;1300;24383;-26
2022/03/02 01:14:02;;;;;;;36.00;13.90;;;;;;;-5.32;88.64;100626.38;103486;1302;24260;-27
2022/03/02 01:16:28;;;;;;;58.50;15.20;;;;;;;-5.29;90.93;100626.23;103571;1302;24194;-26
2022/03/02 01:18:54;;;;;;;29.60;11.50;;;;;;;-5.29;91.33;100624.48;103588;1300;24243;-29
2022/03/02 01:21:20;;;;;;;32.00;12.00;;;;;;;-5.20;92.54;100624.27;103651;1300;24208;-25
2022/03/02 01:23:45;;;;;;;48.60;13.40;;;;;;;-5.05;93.01;100619.41;103600;1300;24358;-25
2022/03/02 01:26:11;;;;;;;41.60;14.90;;;;;;;-5.06;91.47;100617.58;103585;1300;24302;-29
2022/03/02 01:28:37;;;;;;;35.50;12.60;;;;;;;-5.15;90.85;100619.01;103660;1300;24340;-29
2022/03/02 01:31:03;;;;;;;34.50;11.00;;;;;;;-5.20;90.99;100614.30;103548;1299;24255;-27
2022/03/02 01:33:28;;;;;;;50.60;15.20;;;;;;;-5.23;90.46;100611.84;103464;1302;24222;-29
2022/03/02 01:35:54;;;;;;;51.90;17.10;;;;;;;-5.33;89.78;100611.94;103637;1300;23684;-28
2022/03/02 01:38:20;;;;;;;94.80;23.70;;;;;;;-5.41;90.63;100609.30;103553;1300;24366;-30
2022/03/02 01:40:46;;;;;;;47.30;15.20;;;;;;;-5.48;90.13;100606.80;103579;1302;24238;-25
2022/03/02 01:43:12;;;;;;;56.50;17.10;;;;;;;-5.48;89.06;100603.82;103666;1300;24470;-27
2022/03/02 01:45:39;;;;;;;58.60;18.60;;;;;;;-5.51;85.33;100603.63;103517;1300;24324;-26
2022/03/02 01:48:05;;;;;;;66.50;18.60;;;;;;;-5.59;84.84;100596.28;103651;1303;24195;-29
2022/03/02 01:50:31;;;;;;;48.80;16.00;;;;;;;-5.66;86.52;100591.70;103552;1300;24403;-26
2022/03/02 01:52:57;;;;;;;52.20;19.10;;;;;;;-5.75;86.61;100587.70;103607;1300;24214;-28
2022/03/02 01:55:23;;;;;;;36.30;14.50;;;;;;;-5.74;89.65;100584.70;103633;1300;22720;-29
2022/03/02 01:57:49;;;;;;;43.20;13.40;;;;;;;-5.66;92.72;100581.39;103554;1302;24310;-26
2022/03/02 02:00:18;;;;;;;79.90;18.50;;;;;;;-5.52;94.16;100577.30;103537;1301;24249;-27
2022/03/02 02:02:45;;;;;;;53.00;16.10;;;;;;;-5.54;93.30;100574.80;103604;1300;22696;-29
2022/03/02 02:05:11;;;;;;;62.80;16.60;;;;;;;-5.56;93.62;100580.46;103544;1300;24665;-29
2022/03/02 02:07:36;;;;;;;42.10;14.20;;;;;;;-5.56;94.08;100577.15;103678;1300;24237;-29
2022/03/02 02:10:06;;;;;;;43.80;16.20;;;;;;;-5.45;95.31;100575.09;103527;1300;24227;-25
2022/03/02 02:12:32;;;;;;;71.10;16.70;;;;;;;-5.27;96.09;100574.11;103629;1299;24194;-29
2022/03/02 02:14:59;;;;;;;86.70;24.20;;;;;;;-5.25;95.20;100569.50;103509;1302;22496;-28
2022/03/02 02:17:26;;;;;;;74.70;22.50;;;;;;;-5.41;92.98;100569.69;103627;1300;22768;-24
2022/03/02 02:19:52;;;;;;;100.20;21.20;;;;;;;-5.61;91.10;100567.23;103551;1303;24317;-25
2022/03/02 02:22:18;;;;;;;87.30;19.80;;;;;;;-5.80;90.43;100561.04;103564;1300;24218;-25
2022/03/02 02:24:44;;;;;;;72.90;19.00;;;;;;;-5.90;90.11;100559.02;103546;1303;24305;-27
2022/03/02 02:27:11;;;;;;;73.00;17.10;;;;;;;-5.91;91.99;100553.48;103570;1300;24277;-25
2022/03/02 02:29:37;;;;;;;103.30;27.40;;;;;;;-5.91;92.13;100551.73;103627;1302;22509;-28
2022/03/02 02:32:03;;;;;;;139.80;33.40;;;;;;;-5.96;91.63;100552.86;103632;1299;24243;-27
2022/03/02 02:34:29;;;;;;;109.60;27.70;;;;;;;-6.00;91.25;100555.31;103650;1299;24245;-26
2022/03/02 02:36:56;;;;;;;95.50;31.00;;;;;;;-6.03;90.54;100550.04;103621;1300;24214;-29
2022/03/02 02:39:24;;;;;;;68.40;20.30;;;;;;;-5.99;92.46;100549.48;103591;1300;24545;-27
2022/03/02 02:41:50;;;;;;;62.80;19.40;;;;;;;-5.79;94.66;100548.27;103551;1300;24269;-29
2022/03/02 02:44:16;;;;;;;57.00;16.40;;;;;;;-5.64;94.54;100546.60;103542;1299;24217;-25
2022/03/02 02:46:43;;;;;;;64.70;16.80;;;;;;;-5.54;94.28;100546.31;103575;1300;24287;-28
2022/03/02 02:49:09;;;;;;;56.00;18.30;;;;;;;-5.49;93.58;100544.57;103480;1300;24302;-24
2022/03/02 02:51:34;;;;;;;75.30;20.50;;;;;;;-5.56;89.45;100540.68;103595;1299;24342;-28
2022/03/02 02:54:01;;;;;;;48.20;16.50;;;;;;;-5.65;86.83;100538.61;103500;1302;24196;-28
2022/03/02 02:56:27;;;;;;;56.20;17.10;;;;;;;-5.71;85.30;100538.48;103560;1302;24658;-25
2022/03/02 02:58:53;;;;;;;60.40;19.40;;;;;;;-5.75;84.63;100540.77;103572;1300;24297;-28
2022/03/02 03:01:18;;;;;;;40.00;14.70;;;;;;;-5.78;86.18;100536.73;103493;1303;24224;-25
2022/03/02 03:03:47;;;;;;;50.70;17.60;;;;;;;-5.76;89.32;100537.86;103573;1299;24254;-25
2022/03/02 03:06:12;;;;;;;50.50;14.00;;;;;;;-5.80;88.78;100532.27;103612;1302;23032;-28
2022/03/02 03:08:38;;;;;;;56.10;14.90;;;;;;;-5.79;89.40;100534.16;103598;1299;24216;-29
2022/03/02 03:11:04;;;;;;;52.00;15.10;;;;;;;-5.72;90.52;100531.04;103644;1300;24314;-26
2022/03/02 03:13:29;;;;;;;60.60;20.20;;;;;;;-5.60;91.45;100530.73;103584;1303;24218;-29
2022/03/02 03:15:55;;;;;;;71.20;21.30;;;;;;;-5.59;90.02;100532.27;103492;1303;24373;-29
2022/03/02 03:18:21;;;;;;;64.10;24.40;;;;;;;-5.64;88.98;100530.87;103565;1299;24253;-26
2022/03/02 03:20:47;;;;;;;56.90;22.10;;;;;;;-5.73;88.18;100524.13;103499;1302;24240;-28
2022/03/02 03:23:13;;;;;;;58.50;23.80;;;;;;;-5.84;87.36;100521.80;103549;1299;24240;-25
2022/03/02 03:25:39;;;;;;;59.10;23.30;;;;;;;-5.91;87.66;100515.65;103664;1299;22500;-29
2022/03/02 03:28:05;;;;;;;62.20;22.80;;;;;;;-5.99;87.29;100511.83;103521;1300;24313;-28
2022/03/02 03:30:31;;;;;;;83.40;21.90;;;;;;;-6.06;86.88;100511.60;103595;1299;24249;-28
2022/03/02 03:32:57;;;;;;;41.70;15.50;;;;;;;-6.06;88.45;100513.70;103573;1302;22503;-29
2022/03/02 03:35:24;;;;;;;101.20;22.40;;;;;;;-5.96;90.71;100510.32;103529;1302;24252;-26
2022/03/02 03:37:50;;;;;;;69.20;21.50;;;;;;;-5.96;89.80;100513.97;103606;1299;22855;-25
2022/03/02 03:40:16;;;;;;;60.90;21.30;;;;;;;-6.00;89.41;100517.78;103578;1300;22725;-29
2022/03/02 03:42:42;;;;;;;56.90;16.90;;;;;;;-6.03;89.53;100516.37;103521;1303;24273;-25
2022/03/02 03:45:08;;;;;;;35.60;13.40;;;;;;;-5.93;92.28;100514.69;103586;1300;24246;-28
2022/03/02 03:47:34;;;;;;;47.60;14.60;;;;;;;-5.84;92.62;100517.09;103549;1302;22677;-26
2022/03/02 03:50:00;;;;;;;59.50;19.70;;;;;;;-5.86;91.32;100519.80;103601;1299;24404;-25
2022/03/02 03:52:26;;;;;;;67.10;19.30;;;;;;;-5.94;90.50;100522.25;103518;1302;24222;-24
2022/03/02 03:54:51;;;;;;;65.70;18.70;;;;;;;-6.02;90.57;100521.89;103578;1302;24176;-27
2022/03/02 03:57:17;;;;;;;48.40;15.90;;;;;;;-6.09;90.78;100521.65;103571;1299;24290;-25
2022/03/02 03:59:43;;;;;;;31.30;12.10;;;;;;;-6.11;91.94;100526.79;103555;1300;24290;-26
2022/03/02 04:02:09;;;;;;;37.00;12.80;;;;;;;-6.04;93.20;100525.81;103524;1302;24246;-26
2022/03/02 04:04:35;;;;;;;55.70;18.60;;;;;;;-6.00;93.47;100527.89;103563;1299;24374;-28
2022/03/02 04:07:01;;;;;;;48.50;15.80;;;;;;;-6.09;92.17;100527.77;103514;1300;24400;-26
2022/03/02 04:09:27;;;;;;;65.00;17.90;;;;;;;-6.23;91.34;100526.05;103557;1301;24275;-25
2022/03/02 04:11:53;;;;;;;39.50;14.60;;;;;;;-6.34;92.67;100520.78;103141;1299;624617;-27
2022/03/02 04:14:18;;;;;;;61.40;19.30;;;;;;;-6.31;94.36;100519.93;103628;1299;24402;-24
2022/03/02 04:16:44;;;;;;;67.20;21.50;;;;;;;-6.33;93.65;100514.98;103614;1300;24292;-29
2022/03/02 04:19:10;;;;;;;51.30;16.20;;;;;;;-6.43;92.42;100517.63;103498;1303;22502;-28
2022/03/02 04:21:35;;;;;;;54.60;17.20;;;;;;;-6.50;91.88;100517.58;103604;1299;24348;-25
2022/03/02 04:24:01;;;;;;;59.10;20.90;;;;;;;-6.55;91.99;100510.63;103581;1299;24317;-25
2022/03/02 04:26:27;;;;;;;61.00;20.80;;;;;;;-6.55;92.93;100507.86;103531;1302;24196;-24
2022/03/02 04:28:52;;;;;;;31.80;12.70;;;;;;;-6.54;93.36;100505.35;103600;1299;22501;-25
2022/03/02 04:31:18;;;;;;;72.90;18.20;;;;;;;-6.41;95.25;100499.09;103502;1299;24245;-27
2022/03/02 04:33:44;;;;;;;83.00;25.80;;;;;;;-6.33;94.79;100494.22;103531;1299;24234;-25
2022/03/02 04:36:09;;;;;;;64.80;25.00;;;;;;;-6.30;90.46;100493.95;103596;1299;24321;-25
2022/03/02 04:38:35;;;;;;;74.60;25.90;;;;;;;-6.25;87.76;100491.83;103620;1299;24208;-25
2022/03/02 04:41:01;;;;;;;70.80;26.10;;;;;;;-6.21;87.11;100489.55;103542;1299;24326;-25
2022/03/02 04:43:27;;;;;;;75.80;26.90;;;;;;;-6.17;87.22;100491.29;103550;1299;24292;-28
2022/03/02 04:45:52;;;;;;;113.90;32.30;;;;;;;-6.11;87.30;100492.98;103580;1299;24225;-25
2022/03/02 04:48:18;;;;;;;113.20;34.10;;;;;;;-6.06;87.59;100487.54;103506;1299;24252;-25
2022/03/02 04:50:44;;;;;;;99.60;30.10;;;;;;;-6.06;87.51;100483.87;103568;1300;24195;-25
2022/03/02 04:53:10;;;;;;;80.90;22.10;;;;;;;-6.11;87.49;100483.89;103605;1299;24255;-27
2022/03/02 04:55:36;;;;;;;77.90;24.10;;;;;;;-6.12;90.70;100482.90;103550;1302;24277;-25
2022/03/02 04:58:01;;;;;;;74.10;22.80;;;;;;;-6.09;91.72;100482.80;103536;1302;24249;-27
2022/03/02 05:00:28;;;;;;;83.40;24.40;;;;;;;-6.13;91.31;100486.41;103553;1299;24419;-25
2022/03/02 05:02:54;;;;;;;48.50;17.90;;;;;;;-6.14;92.11;100488.38;103589;1302;24298;-28
2022/03/02 05:05:23;;;;;;;81.60;22.70;;;;;;;-6.11;92.60;100491.06;103586;1300;24024;-25
2022/03/02 05:07:48;;;;;;;99.30;27.10;;;;;;;-6.10;92.93;100493.27;103504;1302;24222;-29
2022/03/02 05:10:15;;;;;;;61.30;23.10;;;;;;;-6.04;92.17;100495.63;103612;1299;24438;-28
2022/03/02 05:12:41;;;;;;;70.60;23.00;;;;;;;-6.03;91.24;100494.06;103656;1299;24218;-25
2022/03/02 05:15:07;;;;;;;77.70;22.60;;;;;;;-6.05;90.00;100494.64;103521;1302;24259;-25
2022/03/02 05:17:34;;;;;;;60.60;21.40;;;;;;;-5.96;92.01;100494.10;103492;1300;24363;-24
2022/03/02 05:20:00;;;;;;;60.60;18.40;;;;;;;-5.99;91.91;100494.06;103562;1299;24339;-28
2022/03/02 05:22:25;;;;;;;76.70;22.00;;;;;;;-6.10;92.15;100491.52;103688;1299;24212;-25
2022/03/02 05:24:51;;;;;;;53.90;19.70;;;;;;;-6.23;92.69;100488.42;103491;1302;24254;-24
2022/03/02 05:27:17;;;;;;;58.60;16.90;;;;;;;-6.35;93.53;100484.88;103520;1299;24269;-30
2022/03/02 05:29:42;;;;;;;69.70;21.90;;;;;;;-6.36;94.14;100487.20;103638;1300;24208;-28
2022/03/02 05:32:09;;;;;;;63.60;19.00;;;;;;;-6.41;94.49;100487.59;103632;1299;22871;-29
2022/03/02 05:34:35;;;;;;;49.00;18.20;;;;;;;-6.46;94.64;100490.39;103599;1299;24217;-26
2022/03/02 05:37:02;;;;;;;81.50;23.70;;;;;;;-6.47;94.74;100490.44;103536;1299;24456;-25
2022/03/02 05:39:28;;;;;;;65.70;22.10;;;;;;;-6.45;94.74;100489.51;103552;1302;24305;-28
2022/03/02 05:41:54;;;;;;;86.60;25.00;;;;;;;-6.43;94.92;100492.20;103752;1299;24283;-25
2022/03/02 05:44:20;;;;;;;81.40;22.80;;;;;;;-6.43;94.58;100492.72;103264;1302;22511;-28
2022/03/02 05:46:46;;;;;;;70.40;22.50;;;;;;;-6.41;94.94;100490.89;103474;1302;24226;-24
2022/03/02 05:49:13;;;;;;;73.90;23.70;;;;;;;-6.41;95.85;100490.90;103425;1302;24244;-26
2022/03/02 05:51:39;;;;;;;48.50;17.40;;;;;;;-6.37;96.34;100497.70;103548;1302;24318;-25
2022/03/02 05:54:05;;;;;;;45.40;17.70;;;;;;;-6.22;96.65;100494.14;103503;1302;26464;-25
2022/03/02 05:56:32;;;;;;;45.70;17.30;;;;;;;-6.09;95.25;100496.38;103507;1302;24240;-28
2022/03/02 05:58:58;;;;;;;54.60;18.60;;;;;;;-6.03;92.21;100496.83;103541;1302;24192;-25
2022/03/02 06:01:23;;;;;;;42.90;15.00;;;;;;;-5.95;91.09;100501.54;103575;1302;24238;-28
2022/03/02 06:03:49;;;;;;;54.70;17.60;;;;;;;-5.90;89.81;100500.06;103545;1302;24217;-25
2022/03/02 06:06:15;;;;;;;45.70;16.60;;;;;;;-5.92;88.95;100496.64;103560;1302;24260;-26
2022/03/02 06:08:41;;;;;;;29.00;11.50;;;;;;;-5.93;89.85;100499.52;103560;1302;24226;-26
2022/03/02 06:11:08;;;;;;;57.90;19.20;;;;;;;-5.82;93.34;100497.29;103482;1302;24483;-25
2022/03/02 06:13:34;;;;;;;39.10;14.50;;;;;;;-5.72;94.25;100497.55;103498;1302;24332;-25
2022/03/02 06:16:00;;;;;;;60.70;19.70;;;;;;;-5.68;94.37;100500.35;103398;1302;24196;-28
2022/03/02 06:18:26;;;;;;;49.60;17.70;;;;;;;-5.60;94.32;100502.61;103420;1302;24304;-28
2022/03/02 06:20:52;;;;;;;44.20;15.90;;;;;;;-5.49;94.58;100495.86;103489;1302;25911;-26
2022/03/02 06:23:20;;;;;;;70.60;21.60;;;;;;;-5.40;93.99;100493.36;103476;1302;24217;-28
2022/03/02 06:25:46;;;;;;;79.10;21.40;;;;;;;-5.39;93.40;100491.05;103522;1302;24213;-25
2022/03/02 06:28:12;;;;;;;44.30;18.30;;;;;;;-5.32;92.82;100487.76;103460;1302;24448;-25
2022/03/02 06:30:38;;;;;;;61.10;22.10;;;;;;;-5.24;91.85;100490.20;103410;1302;24272;-28
2022/03/02 06:33:04;;;;;;;58.80;21.20;;;;;;;-5.21;90.62;100487.27;103472;1302;24239;-25
2022/03/02 06:35:30;;;;;;;68.80;22.00;;;;;;;-5.15;89.89;100489.98;103468;1302;24333;-25
2022/03/02 06:37:56;;;;;;;76.60;22.00;;;;;;;-5.10;89.21;100490.79;103526;1302;24295;-25
2022/03/02 06:40:21;;;;;;;65.10;20.70;;;;;;;-5.05;88.64;100484.46;103556;1302;24250;-28
2022/03/02 06:42:59;;;;;;;60.00;21.60;;;;;;;-5.02;88.34;100477.16;103476;1302;24253;-28
2022/03/02 06:45:33;;;;;;;95.10;24.80;;;;;;;-5.01;87.37;100472.38;103572;1300;24208;-25
2022/03/02 06:48:08;;;;;;;61.90;24.10;;;;;;;-4.94;87.89;100473.09;103587;1300;22550;-25
2022/03/02 06:50:34;;;;;;;82.40;26.90;;;;;;;-4.81;88.70;100472.67;103552;1300;22581;-28
2022/03/02 06:53:01;;;;;;;76.40;26.00;;;;;;;-4.71;88.08;100477.05;103587;1302;24225;-25
2022/03/02 06:55:27;;;;;;;72.70;25.10;;;;;;;-4.53;88.13;100479.19;103556;1302;22513;-28
2022/03/02 06:57:54;;;;;;;105.70;35.10;;;;;;;-4.35;87.95;100481.30;103549;1300;24216;-30
2022/03/02 07:00:20;;;;;;;115.50;33.70;;;;;;;-4.21;87.14;100477.80;103486;1302;24202;-30
2022/03/02 07:02:51;;;;;;;92.30;27.90;;;;;;;-4.19;84.62;100478.92;103527;1302;24217;-25
2022/03/02 07:05:18;;;;;;;78.00;28.20;;;;;;;-3.96;85.34;100479.88;103534;1302;22495;-25
2022/03/02 07:07:44;;;;;;;76.20;23.30;;;;;;;-3.79;84.89;100472.00;103498;1302;22750;-25
2022/03/02 07:10:10;;;;;;;91.00;29.60;;;;;;;-3.73;82.64;100471.54;103632;1300;22493;-28
2022/03/02 07:12:37;;;;;;;90.00;30.60;;;;;;;-3.80;81.40;100470.67;103483;1303;24298;-29
2022/03/02 07:15:04;;;;;;;98.90;30.30;;;;;;;-3.76;80.82;100466.43;103589;1299;24237;-26
2022/03/02 07:17:32;;;;;;;70.70;25.90;;;;;;;-3.60;80.88;100461.93;103296;1300;24329;-25
2022/03/02 07:20:00;;;;;;;94.60;33.90;;;;;;;-3.40;80.48;100459.30;103538;1300;24418;-29
2022/03/02 07:22:31;;;;;;;119.70;34.50;;;;;;;-3.11;82.06;100454.73;103649;1300;22497;-26
2022/03/02 07:25:00;;;;;;;85.60;28.70;;;;;;;-2.70;83.39;100456.70;103518;1302;24247;-29
2022/03/02 07:27:26;;;;;;;91.70;32.30;;;;;;;-2.41;82.89;100455.54;103578;1302;24308;-29
2022/03/02 07:29:52;;;;;;;119.70;34.00;;;;;;;-2.09;81.68;100462.31;103565;1300;24352;-26
2022/03/02 07:32:22;;;;;;;122.90;33.20;;;;;;;-1.94;77.38;100461.97;103603;1299;24388;-26
2022/03/02 07:34:53;;;;;;;125.30;40.50;;;;;;;-1.61;78.53;100460.52;103505;1302;24260;-26
2022/03/02 07:37:18;;;;;;;86.30;32.70;;;;;;;-1.31;77.58;100457.26;103517;1299;24205;-29
2022/03/02 07:39:44;;;;;;;83.00;27.80;;;;;;;-1.00;79.11;100452.34;103595;1299;24459;-26
2022/03/02 07:42:10;;;;;;;82.70;30.40;;;;;;;-0.65;78.92;100451.02;103464;1302;24175;-25
2022/03/02 07:44:35;;;;;;;95.60;34.00;;;;;;;-0.37;79.49;100447.25;103483;1302;24175;-26
2022/03/02 07:47:02;;;;;;;89.40;28.40;;;;;;;-0.11;79.46;100440.73;103514;1302;24215;-25
2022/03/02 07:49:29;;;;;;;61.30;27.20;;;;;;;0.17;77.23;100436.55;103628;1302;24250;-27
2022/03/02 07:51:55;;;;;;;61.20;23.40;;;;;;;0.51;76.86;100430.84;103602;1302;25110;-28
2022/03/02 07:54:21;;;;;;;56.10;25.60;;;;;;;0.64;74.68;100430.30;103580;1301;24400;-29
2022/03/02 07:56:47;;;;;;;57.10;23.90;;;;;;;0.88;74.92;100427.59;103596;1302;24265;-25
2022/03/02 07:59:13;;;;;;;63.20;20.40;;;;;;;1.22;73.87;100425.46;103538;1302;24348;-25
2022/03/02 08:01:39;;;;;;;43.30;17.70;;;;;;;1.40;71.35;100422.41;103508;1303;24298;-26
2022/03/02 08:04:07;;;;;;;50.10;20.30;;;;;;;1.53;69.79;100423.90;103579;1303;22493;-28
2022/03/02 08:06:35;;;;;;;56.80;23.70;;;;;;;1.75;72.22;100422.78;103440;1302;24260;-28
2022/03/02 08:09:03;;;;;;;49.70;21.00;;;;;;;2.03;72.19;100424.71;103548;1302;24230;-29
2022/03/02 08:11:30;;;;;;;50.80;24.10;;;;;;;2.31;69.54;100417.30;103518;1302;24263;-23
2022/03/02 08:13:57;;;;;;;71.50;21.40;;;;;;;2.64;71.86;100412.23;103520;1302;24240;-29
2022/03/02 08:16:23;;;;;;;46.10;19.70;;;;;;;2.86;68.21;100407.48;103577;1302;24225;-29
2022/03/02 08:18:49;;;;;;;71.00;24.50;;;;;;;2.90;67.29;100403.62;103569;1302;24376;-29
2022/03/02 08:21:15;;;;;;;66.50;25.40;;;;;;;3.12;68.38;100404.02;103480;1303;24248;-24
2022/03/02 08:23:41;;;;;;;57.90;21.40;;;;;;;3.26;67.05;100402.31;103550;1302;24418;-28
2022/03/02 08:26:07;;;;;;;52.80;21.30;;;;;;;3.40;63.98;100406.85;103474;1302;24397;-28
2022/03/02 08:28:34;;;;;;;59.80;21.90;;;;;;;3.54;65.59;100409.37;103521;1302;24205;-28
2022/03/02 08:31:00;;;;;;;66.90;22.90;;;;;;;3.74;67.16;100403.98;103552;1302;24338;-28
2022/03/02 08:33:29;;;;;;;51.20;23.50;;;;;;;4.01;65.23;100404.39;103580;1302;24317;-25
2022/03/02 08:35:55;;;;;;;63.80;24.60;;;;;;;4.24;64.26;100398.37;103529;1301;24249;-25
2022/03/02 08:38:22;;;;;;;56.40;23.60;;;;;;;4.47;64.55;100401.04;103573;1302;22635;-28
2022/03/02 08:40:48;;;;;;;68.70;24.60;;;;;;;4.51;63.21;100400.48;103535;1302;24263;-25
2022/03/02 08:43:15;;;;;;;54.90;22.30;;;;;;;4.61;61.16;100394.13;103584;1303;24245;-25
2022/03/02 08:45:45;;;;;;;49.00;21.30;;;;;;;4.79;62.15;100390.41;103613;1303;24348;-25
2022/03/02 08:48:14;;;;;;;52.80;20.40;;;;;;;5.18;63.40;100388.02;103490;1302;22761;-28
2022/03/02 08:50:39;;;;;;;38.00;16.10;;;;;;;5.11;55.04;100392.20;103558;1303;22496;-29
2022/03/02 08:53:05;;;;;;;33.10;14.90;;;;;;;5.21;58.72;100390.43;103512;1302;24216;-29
2022/03/02 08:55:31;;;;;;;46.50;20.70;;;;;;;5.50;61.05;100393.33;103530;1302;24210;-25
2022/03/02 08:57:58;;;;;;;48.80;20.70;;;;;;;5.68;59.53;100389.85;103529;1303;26185;-27
2022/03/02 09:00:24;;;;;;;40.40;17.30;;;;;;;5.52;53.15;100392.22;103550;1302;24362;-27
2022/03/02 09:02:51;;;;;;;48.30;18.50;;;;;;;4.84;50.17;100390.88;103649;1303;24277;-24
2022/03/02 09:05:17;;;;;;;35.60;17.20;;;;;;;5.27;58.15;100384.85;103601;1303;24224;-28
2022/03/02 09:07:43;;;;;;;42.60;17.90;;;;;;;5.71;56.75;100386.23;103509;1302;25345;-25
2022/03/02 09:10:10;;;;;;;34.60;14.40;;;;;;;5.73;53.41;100383.54;103565;1301;22513;-25
2022/03/02 09:12:36;;;;;;;30.90;13.60;;;;;;;6.05;54.76;100387.03;103342;1302;24196;-29
2022/03/02 09:15:02;;;;;;;35.50;16.40;;;;;;;6.29;56.99;100382.13;103584;1303;24279;-28
2022/03/02 09:17:28;;;;;;;32.80;13.30;;;;;;;6.35;53.52;100377.86;103590;1301;22654;-25
2022/03/02 09:19:54;;;;;;;36.00;15.00;;;;;;;6.64;56.84;100368.61;103545;1302;24355;-28
2022/03/02 09:22:22;;;;;;;27.60;11.50;;;;;;;6.95;56.43;100370.08;103491;1303;24437;-25
2022/03/02 09:24:48;;;;;;;22.60;11.20;;;;;;;7.06;52.43;100371.19;103538;1301;24336;-25
2022/03/02 09:27:13;;;;;;;17.30;8.70;;;;;;;6.65;49.83;100373.21;103485;1303;24210;-28
2022/03/02 09:29:42;;;;;;;16.70;9.20;;;;;;;6.55;48.14;100372.88;103546;1302;25102;-27
2022/03/02 09:32:08;;;;;;;21.20;10.80;;;;;;;6.68;49.60;100370.58;103529;1302;22751;-24
2022/03/02 09:34:34;;;;;;;22.90;10.80;;;;;;;6.49;44.74;100370.02;103601;1302;24261;-27
2022/03/02 09:37:00;;;;;;;17.70;10.00;;;;;;;6.35;46.82;100372.96;103577;1303;24317;-28
2022/03/02 09:39:25;;;;;;;16.90;9.30;;;;;;;6.44;47.60;100374.09;103504;1303;22515;-25
2022/03/02 09:41:54;;;;;;;21.50;10.60;;;;;;;5.89;44.18;100377.14;103539;1303;24177;-28
2022/03/02 09:44:25;;;;;;;23.40;11.20;;;;;;;6.20;47.26;100367.63;103583;1303;23875;-29
2022/03/02 09:46:55;;;;;;;35.20;21.10;;;;;;;6.50;46.57;100363.52;103590;1303;22496;-29
2022/03/02 09:49:21;;;;;;;35.70;18.20;;;;;;;6.65;44.89;100358.20;103559;1303;22631;-25
2022/03/02 09:51:51;;;;;;;21.90;11.70;;;;;;;6.05;44.25;100365.52;103535;1302;24246;-28
2022/03/02 09:54:20;;;;;;;16.30;7.50;;;;;;;5.66;44.42;100365.33;103590;1303;24296;-25
2022/03/02 09:56:46;;;;;;;16.00;6.60;;;;;;;5.77;43.58;100357.02;103555;1303;24204;-25
2022/03/02 09:59:12;;;;;;;13.10;5.70;;;;;;;5.50;41.82;100357.05;103515;1303;24475;-28
2022/03/02 10:01:39;;;;;;;15.30;8.00;;;;;;;5.68;43.06;100353.81;103534;1302;24302;-28
2022/03/02 10:04:13;;;;;;;17.10;8.30;;;;;;;5.86;41.90;100348.77;103580;1301;24648;-24
2022/03/02 10:06:42;;;;;;;31.30;8.50;;;;;;;6.34;41.92;100344.98;103505;1302;24364;-28
2022/03/02 10:09:08;;;;;;;8.20;4.70;;;;;;;5.71;41.07;100346.23;103254;1303;24308;-25
2022/03/02 10:11:34;;;;;;;17.80;6.60;;;;;;;6.06;42.28;100342.80;103542;1303;22846;-26
2022/03/02 10:13:59;;;;;;;15.90;8.30;;;;;;;5.98;42.11;100342.64;103481;1302;24387;-25
2022/03/02 10:16:27;;;;;;;16.90;9.40;;;;;;;6.36;42.11;100336.95;103494;1303;24344;-25
2022/03/02 10:18:57;;;;;;;16.20;4.80;;;;;;;6.19;41.66;100333.04;103605;1303;22718;-26
2022/03/02 10:21:28;;;;;;;7.90;4.60;;;;;;;5.53;40.94;100331.02;103482;1302;24496;-30
2022/03/02 10:23:58;;;;;;;12.00;7.00;;;;;;;5.63;42.66;100329.23;103542;1303;25335;-26
2022/03/02 10:26:25;;;;;;;13.20;6.50;;;;;;;6.10;42.90;100328.41;103536;1302;24245;-27
2022/03/02 10:28:59;;;;;;;21.10;9.30;;;;;;;6.36;42.04;100322.00;103587;1301;24289;-30
2022/03/02 10:31:29;;;;;;;19.50;7.70;;;;;;;6.88;41.96;100317.50;103595;1301;23854;-29
2022/03/02 10:33:57;;;;;;;13.80;9.00;;;;;;;6.31;40.62;100314.66;103536;1302;26273;-29
2022/03/02 10:36:27;;;;;;;16.10;7.90;;;;;;;5.99;40.72;100314.64;103592;1301;24210;-24
2022/03/02 10:38:58;;;;;;;18.90;7.60;;;;;;;6.12;42.08;100309.38;103538;1303;24362;-26
2022/03/02 10:41:24;;;;;;;12.40;7.00;;;;;;;6.85;41.57;100300.67;103637;1302;22661;-29
2022/03/02 10:43:57;;;;;;;8.80;6.00;;;;;;;6.75;40.59;100299.89;103371;1303;24293;-28
2022/03/02 10:46:24;;;;;;;13.20;7.60;;;;;;;6.51;41.22;100296.96;103531;1302;24255;-28
2022/03/02 10:49:01;;;;;;;19.90;8.00;;;;;;;7.33;41.35;100296.16;103547;1300;24435;-24
2022/03/02 10:51:26;;;;;;;12.70;8.20;;;;;;;7.62;40.76;100289.83;103544;1302;25229;-28
2022/03/02 10:53:52;;;;;;;10.70;6.70;;;;;;;7.94;40.17;100285.33;103511;1302;24307;-25
2022/03/02 10:56:18;;;;;;;8.60;6.10;;;;;;;8.45;39.19;100282.16;103567;1303;24212;-28
2022/03/02 10:58:45;;;;;;;18.80;9.20;;;;;;;8.95;41.15;100283.06;103526;1303;24211;-25
2022/03/02 11:01:11;;;;;;;12.40;6.70;;;;;;;9.40;39.53;100281.13;103539;1302;24349;-28